Wilton, NC

7:59 AM EDT on April 29, 2017 (GMT -0400)
Wilton | | Change Station

Elev 520 ft 36.12 °N, 78.54 °W | Updated 22 days ago

Overcast
Overcast
61.2 °F
Feels Like 61.2 °F
N
13.0
Wind Variable Wind from West
Gusts 13.0 mph

Today
High -- | Low -- °F
--% Chance of Precip.
Yesterday
High -- | Low -- °F
Precip. -- in
Pressure 30.19 in
Visibility 7.0 miles
Clouds Mostly Cloudy 1300 ft
Dew Point 40 °F
Humidity 45%
Rainfall 0.00 in
Snow Depth Not available.
6:23 AM 8:00 PM
Waxing Crescent, 13% visible
METAR KHNZ 291135Z AUTO 22009G14KT 7SM BKN013 21/19 A3019 RMK AO2 T02130192
Pressure 30.19 in
Visibility 7.0 miles
Clouds Mostly Cloudy 1300 ft
Dew Point 40 °F
Humidity 45%
Rainfall 0.00 in
Snow Depth Not available.
6:23 AM 8:00 PM
Waxing Crescent, 13% visible
METAR KHNZ 291135Z AUTO 22009G14KT 7SM BKN013 21/19 A3019 RMK AO2 T02130192

Get Severe Weather Alerts

Thanks for signing up!

Be on the lookout for a verification email in your inbox.

You'll start receiving the daily forecast at 8 AM.

×

10-Day Weather Forecast

Almanac

Astronomy

Apr. 29, 2017 Rise Set
Actual Time
Civil Twilight
Nautical Twilight
Astronomical Twilight
Moon
Length of Visible Light
Length of Day
Tomorrow will be .
, % of the Moon is Illuminated

Today's Extremes

State Highs State Lows

Community

WunderPhotos

WunderBlog® & News

Nearby

Air Quality

  Air Quality AQ Index Pollutant
Not available.

Snow Depth

Station Depth Elevation

Earthquake Activity

City Distance Mag. Time & Date
Minimum magnitude displayed is 2.5.

Coastal Water Temperatures

Place Temperature

Stations

Nearby Weather Stations

Station Location Temp. Windchill Dew Point Humidity Wind Precip. Elev Updated Type
                   

Watches & Warnings

There are currently no watches in effect.